sensor_id;sensor_type;location;lat;lon;timestamp;pressure;altitude;pressure_sealevel;temperature;humidity
29815;BME280;16708;50.426;7.664;2023-09-19T00:02:30;981.79;;;15.56;100.00
29815;BME280;16708;50.426;7.664;2023-09-19T00:07:27;981.84;;;15.53;100.00
29815;BME280;16708;50.426;7.664;2023-09-19T00:12:19;981.91;;;15.53;100.00
29815;BME280;16708;50.426;7.664;2023-09-19T00:17:13;981.83;;;15.51;100.00
29815;BME280;16708;50.426;7.664;2023-09-19T00:22:07;981.90;;;15.44;100.00
29815;BME280;16708;50.426;7.664;2023-09-19T00:27:01;981.88;;;15.29;100.00
29815;BME280;16708;50.426;7.664;2023-09-19T00:31:55;982.07;;;15.22;100.00
29815;BME280;16708;50.426;7.664;2023-09-19T00:36:50;982.05;;;15.13;100.00
29815;BME280;16708;50.426;7.664;2023-09-19T00:41:44;982.09;;;15.01;100.00
29815;BME280;16708;50.426;7.664;2023-09-19T00:46:40;982.15;;;14.94;100.00
29815;BME280;16708;50.426;7.664;2023-09-19T00:51:33;982.19;;;14.86;100.00
29815;BME280;16708;50.426;7.664;2023-09-19T00:56:29;982.22;;;14.78;100.00
29815;BME280;16708;50.426;7.664;2023-09-19T01:01:21;982.29;;;14.67;100.00
29815;BME280;16708;50.426;7.664;2023-09-19T01:06:15;982.27;;;14.65;100.00
29815;BME280;16708;50.426;7.664;2023-09-19T01:11:10;982.30;;;14.57;100.00
29815;BME280;16708;50.426;7.664;2023-09-19T01:16:04;982.36;;;14.53;100.00
29815;BME280;16708;50.426;7.664;2023-09-19T01:30:47;982.43;;;14.30;100.00
29815;BME280;16708;50.426;7.664;2023-09-19T01:35:42;982.50;;;14.27;100.00
29815;BME280;16708;50.426;7.664;2023-09-19T01:40:35;982.54;;;14.22;100.00
29815;BME280;16708;50.426;7.664;2023-09-19T01:45:29;982.57;;;14.21;100.00
29815;BME280;16708;50.426;7.664;2023-09-19T01:50:24;982.59;;;14.11;100.00
29815;BME280;16708;50.426;7.664;2023-09-19T01:55:19;982.61;;;14.06;100.00
29815;BME280;16708;50.426;7.664;2023-09-19T02:00:13;982.58;;;13.93;100.00
29815;BME280;16708;50.426;7.664;2023-09-19T02:05:07;982.56;;;13.96;100.00
29815;BME280;16708;50.426;7.664;2023-09-19T02:10:01;982.53;;;13.95;100.00
29815;BME280;16708;50.426;7.664;2023-09-19T02:14:55;982.53;;;13.90;100.00
29815;BME280;16708;50.426;7.664;2023-09-19T02:19:49;982.61;;;13.90;100.00
29815;BME280;16708;50.426;7.664;2023-09-19T02:24:44;982.71;;;13.83;100.00
29815;BME280;16708;50.426;7.664;2023-09-19T02:29:38;982.67;;;13.84;100.00
29815;BME280;16708;50.426;7.664;2023-09-19T02:34:33;982.78;;;13.84;100.00
29815;BME280;16708;50.426;7.664;2023-09-19T02:39:27;982.81;;;13.86;100.00
29815;BME280;16708;50.426;7.664;2023-09-19T02:44:22;982.84;;;13.89;100.00
29815;BME280;16708;50.426;7.664;2023-09-19T02:49:19;982.91;;;13.99;100.00
29815;BME280;16708;50.426;7.664;2023-09-19T02:54:11;982.99;;;13.99;100.00
29815;BME280;16708;50.426;7.664;2023-09-19T02:59:03;983.04;;;14.05;100.00
29815;BME280;16708;50.426;7.664;2023-09-19T03:03:58;983.01;;;14.10;100.00
29815;BME280;16708;50.426;7.664;2023-09-19T03:08:52;983.13;;;14.01;100.00
29815;BME280;16708;50.426;7.664;2023-09-19T03:13:47;983.06;;;14.00;100.00
29815;BME280;16708;50.426;7.664;2023-09-19T03:18:42;983.14;;;14.00;100.00
29815;BME280;16708;50.426;7.664;2023-09-19T03:23:36;983.13;;;13.95;100.00
29815;BME280;16708;50.426;7.664;2023-09-19T03:28:30;983.09;;;13.85;100.00
29815;BME280;16708;50.426;7.664;2023-09-19T03:33:24;982.96;;;13.69;100.00
29815;BME280;16708;50.426;7.664;2023-09-19T03:38:19;983.02;;;13.58;100.00
29815;BME280;16708;50.426;7.664;2023-09-19T03:43:13;983.12;;;13.41;100.00
29815;BME280;16708;50.426;7.664;2023-09-19T03:48:07;983.11;;;13.31;100.00
29815;BME280;16708;50.426;7.664;2023-09-19T03:53:01;983.29;;;13.26;100.00
29815;BME280;16708;50.426;7.664;2023-09-19T03:57:54;983.37;;;13.24;100.00
29815;BME280;16708;50.426;7.664;2023-09-19T04:02:49;983.35;;;13.20;100.00
29815;BME280;16708;50.426;7.664;2023-09-19T04:07:41;983.34;;;13.19;100.00
29815;BME280;16708;50.426;7.664;2023-09-19T04:12:35;983.32;;;13.08;100.00
29815;BME280;16708;50.426;7.664;2023-09-19T04:17:30;983.28;;;13.06;100.00
29815;BME280;16708;50.426;7.664;2023-09-19T04:22:24;983.38;;;13.09;100.00
29815;BME280;16708;50.426;7.664;2023-09-19T04:27:19;983.34;;;13.18;100.00
29815;BME280;16708;50.426;7.664;2023-09-19T04:32:13;983.37;;;13.26;100.00
29815;BME280;16708;50.426;7.664;2023-09-19T04:37:07;983.30;;;13.36;100.00
29815;BME280;16708;50.426;7.664;2023-09-19T04:42:01;983.36;;;13.46;100.00
29815;BME280;16708;50.426;7.664;2023-09-19T04:46:56;983.41;;;13.49;100.00
29815;BME280;16708;50.426;7.664;2023-09-19T04:51:51;983.42;;;13.47;100.00
29815;BME280;16708;50.426;7.664;2023-09-19T04:56:45;983.50;;;13.40;100.00
29815;BME280;16708;50.426;7.664;2023-09-19T05:01:40;983.59;;;13.39;100.00
29815;BME280;16708;50.426;7.664;2023-09-19T05:06:34;983.57;;;13.41;100.00
29815;BME280;16708;50.426;7.664;2023-09-19T05:11:28;983.50;;;13.38;100.00
29815;BME280;16708;50.426;7.664;2023-09-19T05:16:24;983.57;;;13.41;100.00
29815;BME280;16708;50.426;7.664;2023-09-19T05:21:18;983.60;;;13.43;100.00
29815;BME280;16708;50.426;7.664;2023-09-19T05:26:12;983.54;;;13.49;100.00
29815;BME280;16708;50.426;7.664;2023-09-19T05:31:07;983.56;;;13.47;100.00
29815;BME280;16708;50.426;7.664;2023-09-19T05:36:00;983.65;;;13.52;100.00
29815;BME280;16708;50.426;7.664;2023-09-19T05:40:54;983.65;;;13.52;100.00
29815;BME280;16708;50.426;7.664;2023-09-19T05:45:48;983.64;;;13.71;100.00
29815;BME280;16708;50.426;7.664;2023-09-19T05:50:42;983.75;;;13.76;100.00
29815;BME280;16708;50.426;7.664;2023-09-19T05:55:37;983.82;;;13.80;100.00
29815;BME280;16708;50.426;7.664;2023-09-19T06:00:31;983.82;;;13.74;100.00
29815;BME280;16708;50.426;7.664;2023-09-19T06:05:21;984.01;;;13.70;100.00
29815;BME280;16708;50.426;7.664;2023-09-19T06:10:16;984.05;;;13.72;100.00
29815;BME280;16708;50.426;7.664;2023-09-19T06:15:10;984.16;;;13.79;100.00
29815;BME280;16708;50.426;7.664;2023-09-19T06:20:04;984.21;;;13.86;100.00
29815;BME280;16708;50.426;7.664;2023-09-19T06:24:58;984.17;;;13.94;100.00
29815;BME280;16708;50.426;7.664;2023-09-19T06:29:53;984.43;;;13.86;100.00
29815;BME280;16708;50.426;7.664;2023-09-19T06:34:48;984.38;;;14.02;100.00
29815;BME280;16708;50.426;7.664;2023-09-19T06:39:42;984.48;;;14.05;100.00
29815;BME280;16708;50.426;7.664;2023-09-19T06:44:36;984.53;;;14.14;100.00
29815;BME280;16708;50.426;7.664;2023-09-19T06:49:31;984.57;;;14.28;100.00
29815;BME280;16708;50.426;7.664;2023-09-19T06:54:26;984.74;;;14.39;100.00
29815;BME280;16708;50.426;7.664;2023-09-19T06:59:20;984.77;;;14.38;100.00
29815;BME280;16708;50.426;7.664;2023-09-19T07:04:15;984.89;;;14.43;100.00
29815;BME280;16708;50.426;7.664;2023-09-19T07:09:09;984.92;;;14.35;100.00
29815;BME280;16708;50.426;7.664;2023-09-19T07:14:03;984.91;;;14.39;100.00
29815;BME280;16708;50.426;7.664;2023-09-19T07:18:58;984.96;;;14.24;100.00
29815;BME280;16708;50.426;7.664;2023-09-19T07:23:52;984.96;;;14.28;100.00
29815;BME280;16708;50.426;7.664;2023-09-19T07:28:46;984.94;;;14.34;100.00
29815;BME280;16708;50.426;7.664;2023-09-19T07:33:41;985.14;;;14.38;100.00
29815;BME280;16708;50.426;7.664;2023-09-19T07:38:35;985.11;;;14.45;100.00
29815;BME280;16708;50.426;7.664;2023-09-19T07:43:31;985.22;;;14.67;100.00
29815;BME280;16708;50.426;7.664;2023-09-19T07:48:25;985.18;;;14.71;100.00
29815;BME280;16708;50.426;7.664;2023-09-19T07:53:19;985.15;;;14.65;100.00
29815;BME280;16708;50.426;7.664;2023-09-19T07:58:14;985.08;;;15.01;100.00
29815;BME280;16708;50.426;7.664;2023-09-19T08:03:08;985.13;;;14.89;100.00
29815;BME280;16708;50.426;7.664;2023-09-19T08:08:02;985.02;;;14.99;100.00
29815;BME280;16708;50.426;7.664;2023-09-19T08:12:57;985.10;;;15.13;100.00
29815;BME280;16708;50.426;7.664;2023-09-19T08:17:52;985.18;;;15.53;100.00
29815;BME280;16708;50.426;7.664;2023-09-19T08:22:47;985.27;;;15.39;100.00
29815;BME280;16708;50.426;7.664;2023-09-19T08:27:41;985.27;;;15.33;100.00
29815;BME280;16708;50.426;7.664;2023-09-19T08:32:35;985.30;;;15.36;100.00
29815;BME280;16708;50.426;7.664;2023-09-19T08:37:30;985.24;;;15.67;100.00
29815;BME280;16708;50.426;7.664;2023-09-19T08:42:24;985.28;;;15.77;100.00
29815;BME280;16708;50.426;7.664;2023-09-19T08:47:19;985.36;;;15.48;100.00
29815;BME280;16708;50.426;7.664;2023-09-19T08:52:13;985.41;;;15.77;100.00
29815;BME280;16708;50.426;7.664;2023-09-19T08:57:09;985.53;;;15.93;100.00
29815;BME280;16708;50.426;7.664;2023-09-19T09:02:03;985.46;;;16.39;100.00
29815;BME280;16708;50.426;7.664;2023-09-19T09:06:57;985.33;;;16.54;100.00
29815;BME280;16708;50.426;7.664;2023-09-19T09:11:52;985.53;;;17.56;100.00
29815;BME280;16708;50.426;7.664;2023-09-19T09:16:47;985.60;;;17.10;100.00
29815;BME280;16708;50.426;7.664;2023-09-19T09:21:44;985.56;;;17.32;100.00
29815;BME280;16708;50.426;7.664;2023-09-19T09:26:37;985.57;;;18.16;100.00
29815;BME280;16708;50.426;7.664;2023-09-19T09:31:33;985.46;;;16.99;100.00
29815;BME280;16708;50.426;7.664;2023-09-19T09:36:25;985.48;;;17.71;100.00
29815;BME280;16708;50.426;7.664;2023-09-19T09:46:15;985.60;;;18.75;100.00
29815;BME280;16708;50.426;7.664;2023-09-19T09:51:08;985.57;;;17.96;100.00
29815;BME280;16708;50.426;7.664;2023-09-19T09:56:02;985.64;;;17.84;100.00
29815;BME280;16708;50.426;7.664;2023-09-19T10:05:51;985.58;;;18.29;100.00
29815;BME280;16708;50.426;7.664;2023-09-19T10:10:46;985.53;;;18.05;100.00
29815;BME280;16708;50.426;7.664;2023-09-19T10:15:40;985.61;;;17.71;100.00
29815;BME280;16708;50.426;7.664;2023-09-19T10:20:33;985.52;;;19.25;100.00
29815;BME280;16708;50.426;7.664;2023-09-19T10:25:29;985.47;;;20.36;94.80
29815;BME280;16708;50.426;7.664;2023-09-19T10:30:24;985.45;;;19.86;92.43
29815;BME280;16708;50.426;7.664;2023-09-19T10:35:18;985.46;;;19.71;89.95
29815;BME280;16708;50.426;7.664;2023-09-19T10:40:13;985.42;;;17.95;100.00
29815;BME280;16708;50.426;7.664;2023-09-19T10:45:04;985.33;;;17.49;100.00
29815;BME280;16708;50.426;7.664;2023-09-19T10:49:58;985.20;;;17.81;100.00
29815;BME280;16708;50.426;7.664;2023-09-19T10:54:52;985.29;;;19.95;95.19
29815;BME280;16708;50.426;7.664;2023-09-19T10:59:47;985.37;;;19.19;98.32
29815;BME280;16708;50.426;7.664;2023-09-19T11:09:33;985.46;;;20.27;85.09
29815;BME280;16708;50.426;7.664;2023-09-19T11:14:28;985.38;;;18.72;85.91
29815;BME280;16708;50.426;7.664;2023-09-19T11:34:06;985.19;;;21.86;61.26
29815;BME280;16708;50.426;7.664;2023-09-19T11:39:01;985.36;;;22.40;57.36
29815;BME280;16708;50.426;7.664;2023-09-19T11:43:57;985.40;;;21.14;58.25
29815;BME280;16708;50.426;7.664;2023-09-19T11:48:51;985.28;;;21.61;61.20
29815;BME280;16708;50.426;7.664;2023-09-19T11:53:46;985.27;;;20.46;66.88
29815;BME280;16708;50.426;7.664;2023-09-19T11:58:39;985.21;;;20.59;64.62
29815;BME280;16708;50.426;7.664;2023-09-19T12:03:33;985.28;;;21.61;62.05
29815;BME280;16708;50.426;7.664;2023-09-19T12:08:28;985.25;;;21.47;58.96
29815;BME280;16708;50.426;7.664;2023-09-19T12:13:23;985.29;;;22.96;54.02
29815;BME280;16708;50.426;7.664;2023-09-19T12:18:18;985.24;;;20.67;68.84
29815;BME280;16708;50.426;7.664;2023-09-19T12:23:11;985.27;;;19.88;75.33
29815;BME280;16708;50.426;7.664;2023-09-19T12:28:05;985.07;;;19.25;75.26
29815;BME280;16708;50.426;7.664;2023-09-19T12:32:57;985.24;;;20.15;78.24
29815;BME280;16708;50.426;7.664;2023-09-19T12:37:51;985.25;;;19.74;79.34
29815;BME280;16708;50.426;7.664;2023-09-19T12:42:46;985.31;;;22.76;58.35
29815;BME280;16708;50.426;7.664;2023-09-19T12:47:40;985.13;;;23.29;56.59
29815;BME280;16708;50.426;7.664;2023-09-19T12:52:35;985.08;;;22.71;53.82
29815;BME280;16708;50.426;7.664;2023-09-19T12:57:30;985.14;;;21.44;62.20
29815;BME280;16708;50.426;7.664;2023-09-19T13:02:25;985.03;;;23.93;51.01
29815;BME280;16708;50.426;7.664;2023-09-19T13:07:20;985.00;;;24.18;50.05
29815;BME280;16708;50.426;7.664;2023-09-19T13:17:09;984.92;;;21.40;62.56
29815;BME280;16708;50.426;7.664;2023-09-19T13:22:03;984.80;;;22.99;53.18
29815;BME280;16708;50.426;7.664;2023-09-19T13:26:58;984.77;;;21.00;65.04
29815;BME280;16708;50.426;7.664;2023-09-19T13:31:50;985.06;;;20.85;63.00
29815;BME280;16708;50.426;7.664;2023-09-19T13:36:45;984.72;;;22.18;54.56
29815;BME280;16708;50.426;7.664;2023-09-19T13:41:38;984.60;;;22.00;56.52
29815;BME280;16708;50.426;7.664;2023-09-19T13:46:33;984.78;;;22.93;49.18
29815;BME280;16708;50.426;7.664;2023-09-19T13:51:28;984.87;;;21.88;53.66
29815;BME280;16708;50.426;7.664;2023-09-19T13:56:22;984.76;;;23.06;52.63
29815;BME280;16708;50.426;7.664;2023-09-19T14:01:16;984.88;;;24.91;46.18
29815;BME280;16708;50.426;7.664;2023-09-19T14:06:12;984.78;;;24.34;45.03
29815;BME280;16708;50.426;7.664;2023-09-19T14:11:06;984.58;;;23.72;47.25
29815;BME280;16708;50.426;7.664;2023-09-19T14:16:00;984.71;;;24.23;45.97
29815;BME280;16708;50.426;7.664;2023-09-19T14:20:54;984.70;;;23.42;47.70
29815;BME280;16708;50.426;7.664;2023-09-19T14:25:48;984.68;;;25.61;43.52
29815;BME280;16708;50.426;7.664;2023-09-19T14:30:43;984.48;;;24.64;42.50
29815;BME280;16708;50.426;7.664;2023-09-19T14:35:38;984.58;;;25.06;41.55
29815;BME280;16708;50.426;7.664;2023-09-19T14:40:32;984.47;;;24.05;43.66
29815;BME280;16708;50.426;7.664;2023-09-19T14:45:26;984.40;;;25.65;40.72
29815;BME280;16708;50.426;7.664;2023-09-19T14:50:20;984.41;;;24.06;42.86
29815;BME280;16708;50.426;7.664;2023-09-19T14:55:14;984.42;;;24.05;41.86
29815;BME280;16708;50.426;7.664;2023-09-19T15:00:08;984.45;;;25.18;41.77
29815;BME280;16708;50.426;7.664;2023-09-19T15:05:03;984.52;;;23.15;43.29
29815;BME280;16708;50.426;7.664;2023-09-19T15:09:56;984.37;;;24.32;41.18
29815;BME280;16708;50.426;7.664;2023-09-19T15:14:50;984.40;;;23.07;43.95
29815;BME280;16708;50.426;7.664;2023-09-19T15:19:44;984.64;;;24.32;40.87
29815;BME280;16708;50.426;7.664;2023-09-19T15:24:38;984.36;;;24.93;40.97
29815;BME280;16708;50.426;7.664;2023-09-19T15:29:35;984.22;;;21.38;47.43
29815;BME280;16708;50.426;7.664;2023-09-19T15:34:28;984.25;;;22.54;46.48
29815;BME280;16708;50.426;7.664;2023-09-19T15:39:21;984.24;;;21.46;49.35
29815;BME280;16708;50.426;7.664;2023-09-19T15:44:15;984.16;;;20.90;55.61
29815;BME280;16708;50.426;7.664;2023-09-19T15:49:08;984.10;;;23.32;46.50
29815;BME280;16708;50.426;7.664;2023-09-19T15:54:04;984.13;;;23.61;46.13
29815;BME280;16708;50.426;7.664;2023-09-19T15:58:59;984.15;;;25.60;42.63
29815;BME280;16708;50.426;7.664;2023-09-19T16:03:54;984.14;;;22.62;48.33
29815;BME280;16708;50.426;7.664;2023-09-19T16:08:48;984.12;;;21.33;53.09
29815;BME280;16708;50.426;7.664;2023-09-19T16:13:42;984.16;;;21.96;53.38
29815;BME280;16708;50.426;7.664;2023-09-19T16:18:35;984.14;;;19.77;74.54
29815;BME280;16708;50.426;7.664;2023-09-19T16:23:29;984.07;;;19.57;76.64
29815;BME280;16708;50.426;7.664;2023-09-19T16:28:22;984.15;;;19.05;84.26
29815;BME280;16708;50.426;7.664;2023-09-19T16:33:16;984.18;;;18.84;87.70
29815;BME280;16708;50.426;7.664;2023-09-19T16:38:10;984.22;;;18.73;93.48
29815;BME280;16708;50.426;7.664;2023-09-19T16:43:05;984.24;;;18.95;90.59
29815;BME280;16708;50.426;7.664;2023-09-19T16:47:59;984.30;;;18.65;94.54
29815;BME280;16708;50.426;7.664;2023-09-19T16:52:53;984.23;;;18.67;95.08
29815;BME280;16708;50.426;7.664;2023-09-19T16:57:48;984.15;;;18.71;97.34
29815;BME280;16708;50.426;7.664;2023-09-19T17:02:42;984.12;;;19.73;87.38
29815;BME280;16708;50.426;7.664;2023-09-19T17:07:36;984.17;;;19.79;85.64
29815;BME280;16708;50.426;7.664;2023-09-19T17:12:31;984.11;;;19.40;91.04
29815;BME280;16708;50.426;7.664;2023-09-19T17:17:26;984.15;;;18.61;100.00
29815;BME280;16708;50.426;7.664;2023-09-19T17:22:20;984.17;;;18.20;100.00
29815;BME280;16708;50.426;7.664;2023-09-19T17:27:14;984.25;;;18.07;100.00
29815;BME280;16708;50.426;7.664;2023-09-19T17:32:08;984.23;;;17.80;100.00
29815;BME280;16708;50.426;7.664;2023-09-19T17:37:02;984.29;;;17.63;100.00
29815;BME280;16708;50.426;7.664;2023-09-19T17:41:55;984.28;;;17.43;100.00
29815;BME280;16708;50.426;7.664;2023-09-19T17:46:50;984.28;;;17.33;100.00
29815;BME280;16708;50.426;7.664;2023-09-19T17:51:46;984.22;;;17.23;100.00
29815;BME280;16708;50.426;7.664;2023-09-19T17:56:39;984.33;;;17.07;100.00
29815;BME280;16708;50.426;7.664;2023-09-19T18:01:33;984.32;;;16.92;100.00
29815;BME280;16708;50.426;7.664;2023-09-19T18:06:27;984.35;;;16.90;100.00
29815;BME280;16708;50.426;7.664;2023-09-19T18:11:22;984.31;;;16.87;100.00
29815;BME280;16708;50.426;7.664;2023-09-19T18:16:16;984.33;;;16.78;100.00
29815;BME280;16708;50.426;7.664;2023-09-19T18:21:09;984.37;;;16.87;100.00
29815;BME280;16708;50.426;7.664;2023-09-19T18:26:04;984.33;;;16.85;100.00
29815;BME280;16708;50.426;7.664;2023-09-19T18:30:59;984.34;;;16.88;100.00
29815;BME280;16708;50.426;7.664;2023-09-19T18:35:53;984.35;;;16.79;100.00
29815;BME280;16708;50.426;7.664;2023-09-19T18:40:47;984.42;;;16.64;100.00
29815;BME280;16708;50.426;7.664;2023-09-19T18:45:42;984.44;;;16.59;100.00
29815;BME280;16708;50.426;7.664;2023-09-19T18:50:36;984.39;;;16.43;100.00
29815;BME280;16708;50.426;7.664;2023-09-19T18:55:30;984.46;;;16.26;100.00
29815;BME280;16708;50.426;7.664;2023-09-19T19:00:24;984.43;;;16.20;100.00
29815;BME280;16708;50.426;7.664;2023-09-19T19:05:19;984.47;;;16.22;100.00
29815;BME280;16708;50.426;7.664;2023-09-19T19:10:12;984.47;;;16.05;100.00
29815;BME280;16708;50.426;7.664;2023-09-19T19:15:06;984.59;;;16.31;100.00
29815;BME280;16708;50.426;7.664;2023-09-19T19:20:00;984.63;;;16.37;100.00
29815;BME280;16708;50.426;7.664;2023-09-19T19:24:55;984.62;;;16.44;100.00
29815;BME280;16708;50.426;7.664;2023-09-19T19:29:49;984.59;;;16.51;100.00
29815;BME280;16708;50.426;7.664;2023-09-19T19:34:43;984.64;;;16.36;100.00
29815;BME280;16708;50.426;7.664;2023-09-19T19:39:37;984.72;;;16.34;100.00
29815;BME280;16708;50.426;7.664;2023-09-19T19:44:32;984.66;;;16.42;100.00
29815;BME280;16708;50.426;7.664;2023-09-19T19:49:26;984.63;;;16.51;100.00
29815;BME280;16708;50.426;7.664;2023-09-19T19:54:21;984.56;;;16.53;100.00
29815;BME280;16708;50.426;7.664;2023-09-19T19:59:15;984.60;;;16.46;100.00
29815;BME280;16708;50.426;7.664;2023-09-19T20:04:09;984.60;;;16.46;100.00
29815;BME280;16708;50.426;7.664;2023-09-19T20:09:03;984.63;;;16.37;100.00
29815;BME280;16708;50.426;7.664;2023-09-19T20:13:58;984.64;;;16.39;100.00
29815;BME280;16708;50.426;7.664;2023-09-19T20:18:51;984.62;;;16.35;100.00
29815;BME280;16708;50.426;7.664;2023-09-19T20:23:46;984.64;;;16.36;100.00
29815;BME280;16708;50.426;7.664;2023-09-19T20:28:40;984.56;;;16.31;100.00
29815;BME280;16708;50.426;7.664;2023-09-19T20:33:34;984.59;;;16.29;100.00
29815;BME280;16708;50.426;7.664;2023-09-19T20:38:29;984.55;;;16.28;100.00
29815;BME280;16708;50.426;7.664;2023-09-19T20:43:23;984.49;;;16.23;100.00
29815;BME280;16708;50.426;7.664;2023-09-19T20:48:18;984.53;;;16.32;100.00
29815;BME280;16708;50.426;7.664;2023-09-19T20:53:12;984.56;;;16.31;100.00
29815;BME280;16708;50.426;7.664;2023-09-19T20:58:06;984.53;;;16.39;100.00
29815;BME280;16708;50.426;7.664;2023-09-19T21:03:00;984.62;;;16.41;100.00
29815;BME280;16708;50.426;7.664;2023-09-19T21:07:55;984.59;;;16.35;100.00
29815;BME280;16708;50.426;7.664;2023-09-19T21:12:47;984.59;;;16.28;100.00
29815;BME280;16708;50.426;7.664;2023-09-19T21:17:45;984.66;;;16.35;100.00
29815;BME280;16708;50.426;7.664;2023-09-19T21:22:36;984.56;;;16.39;100.00
29815;BME280;16708;50.426;7.664;2023-09-19T21:27:30;984.50;;;16.39;100.00
29815;BME280;16708;50.426;7.664;2023-09-19T21:32:24;984.39;;;16.41;100.00
29815;BME280;16708;50.426;7.664;2023-09-19T21:37:18;984.39;;;16.46;100.00
29815;BME280;16708;50.426;7.664;2023-09-19T21:42:13;984.38;;;16.42;100.00
29815;BME280;16708;50.426;7.664;2023-09-19T21:47:06;984.56;;;16.39;100.00
29815;BME280;16708;50.426;7.664;2023-09-19T21:52:00;984.60;;;16.38;100.00
29815;BME280;16708;50.426;7.664;2023-09-19T21:56:54;984.55;;;16.41;100.00
29815;BME280;16708;50.426;7.664;2023-09-19T22:01:49;984.53;;;16.40;100.00
29815;BME280;16708;50.426;7.664;2023-09-19T22:06:43;984.48;;;16.44;100.00
29815;BME280;16708;50.426;7.664;2023-09-19T22:11:38;984.53;;;16.45;100.00
29815;BME280;16708;50.426;7.664;2023-09-19T22:16:32;984.45;;;16.40;100.00
29815;BME280;16708;50.426;7.664;2023-09-19T22:21:27;984.50;;;16.24;100.00
29815;BME280;16708;50.426;7.664;2023-09-19T22:26:21;984.60;;;16.20;100.00
29815;BME280;16708;50.426;7.664;2023-09-19T22:31:15;984.55;;;16.31;100.00
29815;BME280;16708;50.426;7.664;2023-09-19T22:36:10;984.47;;;16.32;100.00
29815;BME280;16708;50.426;7.664;2023-09-19T22:41:05;984.34;;;16.34;100.00
29815;BME280;16708;50.426;7.664;2023-09-19T22:46:01;984.27;;;16.29;100.00
29815;BME280;16708;50.426;7.664;2023-09-19T22:50:54;984.21;;;16.29;100.00
29815;BME280;16708;50.426;7.664;2023-09-19T22:55:48;984.35;;;16.33;100.00
29815;BME280;16708;50.426;7.664;2023-09-19T23:00:43;984.37;;;16.34;100.00
29815;BME280;16708;50.426;7.664;2023-09-19T23:05:37;984.25;;;16.26;100.00
29815;BME280;16708;50.426;7.664;2023-09-19T23:10:31;984.23;;;16.17;100.00
29815;BME280;16708;50.426;7.664;2023-09-19T23:15:25;984.36;;;16.06;100.00
29815;BME280;16708;50.426;7.664;2023-09-19T23:20:20;984.22;;;15.97;100.00
29815;BME280;16708;50.426;7.664;2023-09-19T23:25:13;984.16;;;15.90;100.00
29815;BME280;16708;50.426;7.664;2023-09-19T23:30:07;984.20;;;15.80;100.00
29815;BME280;16708;50.426;7.664;2023-09-19T23:35:02;984.23;;;15.80;100.00
29815;BME280;16708;50.426;7.664;2023-09-19T23:39:56;984.26;;;15.79;100.00
29815;BME280;16708;50.426;7.664;2023-09-19T23:44:51;984.18;;;15.71;100.00
29815;BME280;16708;50.426;7.664;2023-09-19T23:49:46;984.20;;;15.69;100.00
29815;BME280;16708;50.426;7.664;2023-09-19T23:54:35;984.18;;;15.52;100.00
29815;BME280;16708;50.426;7.664;2023-09-19T23:59:28;984.24;;;15.54;100.00
